Time;durP1;ratioP1;P1;durP2;ratioP2;P2;SDS_P1;SDS_P2;PMS_P1;PMS_P2;Temp;Humidity;BMP_temperature;BMP_pressure;BME280_temperature;BME280_humidity;BME280_pressure;Samples;Min_cycle;Max_cycle;Signal;HPM_P1;HPM_P2
2021/08/25 00:01:26;;;;;;;15.10;11.77;;;;;;;21.77;100.00;101195.78;5019237;28;20408;-75
2021/08/25 00:03:52;;;;;;;12.10;9.70;;;;;;;21.72;100.00;101197.28;5030455;28;20173;-75
2021/08/25 00:06:18;;;;;;;13.50;9.60;;;;;;;21.66;100.00;101193.41;5030621;28;20172;-76
2021/08/25 00:08:44;;;;;;;15.20;11.83;;;;;;;21.54;100.00;101192.91;5030659;28;20983;-75
2021/08/25 00:11:10;;;;;;;17.23;9.87;;;;;;;21.39;100.00;101196.34;5030586;28;20165;-76
2021/08/25 00:13:35;;;;;;;14.47;10.80;;;;;;;21.31;100.00;101197.13;5030309;28;20397;-75
2021/08/25 00:16:01;;;;;;;15.10;10.97;;;;;;;21.27;100.00;101193.97;5030464;28;20188;-74
2021/08/25 00:18:27;;;;;;;18.33;12.10;;;;;;;21.30;100.00;101182.94;5030406;28;20173;-76
2021/08/25 00:20:52;;;;;;;17.67;11.40;;;;;;;21.33;100.00;101184.47;5030313;28;20783;-76
2021/08/25 00:23:18;;;;;;;16.73;12.33;;;;;;;21.31;100.00;101194.47;5030646;28;20193;-76
2021/08/25 00:25:43;;;;;;;15.90;10.50;;;;;;;21.40;100.00;101195.34;5030523;28;20204;-74
2021/08/25 00:28:09;;;;;;;17.57;12.10;;;;;;;21.38;100.00;101187.47;5030550;28;20178;-77
2021/08/25 00:30:34;;;;;;;24.30;13.37;;;;;;;21.41;100.00;101186.34;5030417;28;20169;-73
2021/08/25 00:33:00;;;;;;;15.63;11.20;;;;;;;21.42;100.00;101183.50;5030485;28;20161;-75
2021/08/25 00:35:25;;;;;;;21.63;11.33;;;;;;;21.35;100.00;101185.13;5030712;28;20630;-75
2021/08/25 00:37:52;;;;;;;20.23;12.70;;;;;;;21.36;100.00;101181.47;5030010;28;20173;-74
2021/08/25 00:40:18;;;;;;;25.43;13.10;;;;;;;21.29;100.00;101178.59;5030125;28;20232;-74
2021/08/25 00:42:44;;;;;;;27.07;13.70;;;;;;;21.24;100.00;101183.56;5030163;28;20451;-74
2021/08/25 00:45:11;;;;;;;20.53;12.70;;;;;;;21.22;100.00;101174.00;5030150;28;20420;-75
2021/08/25 00:47:41;;;;;;;20.23;13.07;;;;;;;21.19;100.00;101177.84;5029808;28;20431;-73
2021/08/25 00:50:09;;;;;;;17.10;12.00;;;;;;;21.22;100.00;101166.00;5030316;28;20899;-75
2021/08/25 00:52:40;;;;;;;26.30;13.23;;;;;;;21.23;100.00;101167.66;5029807;28;20401;-75
2021/08/25 00:55:06;;;;;;;24.30;11.87;;;;;;;21.21;100.00;101159.81;5030138;28;20404;-75
2021/08/25 00:57:35;;;;;;;23.93;13.83;;;;;;;21.14;100.00;101176.66;5029924;28;20404;-76
2021/08/25 01:00:02;;;;;;;19.43;12.00;;;;;;;21.09;100.00;101163.78;5030253;28;20781;-76
2021/08/25 01:03:07;;;;;;;21.77;12.37;;;;;;;21.07;100.00;101165.75;5030216;28;20512;-75
2021/08/25 01:05:38;;;;;;;21.53;13.30;;;;;;;21.06;100.00;101167.59;5030238;28;20862;-75
2021/08/25 01:08:04;;;;;;;22.93;15.03;;;;;;;20.98;100.00;101164.06;5020162;28;20409;-76
2021/08/25 01:10:32;;;;;;;22.50;13.20;;;;;;;20.94;100.00;101154.72;5026040;28;20808;-78
2021/08/25 01:13:02;;;;;;;21.90;13.37;;;;;;;21.01;100.00;101163.75;5016227;28;20162;-76
2021/08/25 01:15:36;;;;;;;18.07;11.93;;;;;;;21.03;100.00;101159.09;5033383;28;20495;-75
2021/08/25 01:18:04;;;;;;;22.00;12.83;;;;;;;20.95;100.00;101156.38;5033451;28;20573;-73
2021/08/25 01:20:31;;;;;;;26.33;13.57;;;;;;;21.00;100.00;101162.06;5033272;28;20459;-75
2021/08/25 01:22:57;;;;;;;25.90;14.27;;;;;;;20.91;100.00;101150.50;5030350;28;20413;-75
2021/08/25 01:25:28;;;;;;;21.93;13.57;;;;;;;20.96;100.00;101147.38;5022573;28;20396;-75
2021/08/25 01:27:58;;;;;;;22.87;15.00;;;;;;;20.94;100.00;101149.38;5033306;28;20401;-75
2021/08/25 01:30:26;;;;;;;20.30;12.57;;;;;;;20.97;100.00;101152.53;5033241;28;20408;-75
2021/08/25 01:32:51;;;;;;;18.30;13.87;;;;;;;20.93;100.00;101145.84;5033634;28;20507;-73
2021/08/25 01:35:17;;;;;;;22.80;14.13;;;;;;;20.90;100.00;101145.31;5033668;28;20975;-75
2021/08/25 01:37:44;;;;;;;19.43;15.10;;;;;;;20.85;100.00;101150.28;5033303;28;20538;-74
2021/08/25 01:40:09;;;;;;;20.63;15.23;;;;;;;20.90;100.00;101145.31;5032970;28;20601;-74
2021/08/25 01:42:35;;;;;;;21.07;16.07;;;;;;;20.91;100.00;101144.31;5033159;28;20999;-74
2021/08/25 01:45:00;;;;;;;28.67;19.90;;;;;;;20.95;100.00;101143.03;5033020;28;20188;-74
2021/08/25 01:47:26;;;;;;;29.80;21.43;;;;;;;20.88;100.00;101139.31;5032777;28;20213;-74
2021/08/25 01:49:53;;;;;;;27.27;21.60;;;;;;;20.84;100.00;101143.28;5032984;28;20209;-76
2021/08/25 01:52:19;;;;;;;40.57;22.30;;;;;;;20.81;100.00;101148.94;5033205;28;20424;-75
2021/08/25 01:54:46;;;;;;;32.87;23.23;;;;;;;20.80;100.00;101142.78;5032779;28;20909;-75
2021/08/25 01:57:11;;;;;;;29.90;21.53;;;;;;;20.76;100.00;101144.06;5033245;28;20405;-74
2021/08/25 01:59:37;;;;;;;32.13;20.80;;;;;;;20.74;100.00;101149.59;5032643;28;20850;-75
2021/08/25 02:02:03;;;;;;;27.93;20.00;;;;;;;20.75;100.00;101148.59;5032634;28;20185;-75
2021/08/25 02:04:29;;;;;;;25.03;17.80;;;;;;;20.65;100.00;101150.53;5032581;28;20401;-75
2021/08/25 02:06:54;;;;;;;33.73;18.60;;;;;;;20.56;100.00;101148.81;5032480;28;20227;-74
2021/08/25 02:09:20;;;;;;;24.90;18.87;;;;;;;20.54;100.00;101153.47;5032484;28;20228;-75
2021/08/25 02:11:47;;;;;;;25.87;18.77;;;;;;;20.52;100.00;101144.78;5032806;28;20162;-74
2021/08/25 02:14:12;;;;;;;26.67;18.00;;;;;;;20.48;100.00;101152.28;5032480;28;20466;-75
2021/08/25 02:16:38;;;;;;;24.53;17.50;;;;;;;20.52;100.00;101150.13;5032237;28;20833;-74
2021/08/25 02:19:04;;;;;;;25.10;17.67;;;;;;;20.48;100.00;101148.78;5032420;28;20177;-75
2021/08/25 02:21:29;;;;;;;33.40;20.30;;;;;;;20.50;100.00;101149.44;5032026;28;20215;-76
2021/08/25 02:23:55;;;;;;;49.87;26.53;;;;;;;20.48;100.00;101154.94;5032783;28;20170;-74
2021/08/25 02:26:20;;;;;;;39.43;25.57;;;;;;;20.49;100.00;101145.09;5031976;28;20181;-74
2021/08/25 02:28:47;;;;;;;44.03;27.27;;;;;;;20.46;100.00;101150.75;5032102;28;20205;-75
2021/08/25 02:31:14;;;;;;;41.97;28.53;;;;;;;20.44;100.00;101142.88;5032392;28;20264;-75
2021/08/25 02:33:40;;;;;;;44.83;29.80;;;;;;;20.49;100.00;101135.25;5032194;28;20419;-74
2021/08/25 02:36:06;;;;;;;43.67;29.20;;;;;;;20.46;100.00;101140.06;5032113;28;20499;-75
2021/08/25 02:38:34;;;;;;;43.40;29.37;;;;;;;20.42;100.00;101139.50;5031996;28;20605;-74
2021/08/25 02:40:59;;;;;;;57.20;35.00;;;;;;;20.39;100.00;101141.63;5032105;28;20447;-75
2021/08/25 02:43:25;;;;;;;37.13;26.90;;;;;;;20.40;100.00;101143.31;5031930;28;20917;-74
2021/08/25 02:45:50;;;;;;;35.80;24.47;;;;;;;20.37;100.00;101144.47;5032155;28;20178;-75
2021/08/25 02:48:15;;;;;;;44.17;29.47;;;;;;;20.31;100.00;101142.41;5031513;28;20626;-75
2021/08/25 02:50:41;;;;;;;37.03;27.63;;;;;;;20.28;100.00;101148.09;5032318;28;20177;-75
2021/08/25 02:53:07;;;;;;;37.23;27.33;;;;;;;20.29;100.00;101140.91;5032023;28;20636;-74
2021/08/25 02:55:33;;;;;;;37.70;26.37;;;;;;;20.28;100.00;101141.91;5031599;28;20252;-75
2021/08/25 02:57:58;;;;;;;35.17;25.23;;;;;;;20.28;100.00;101137.41;5032112;28;20424;-75
2021/08/25 03:00:25;;;;;;;30.20;23.97;;;;;;;20.26;100.00;101147.41;5031852;28;20193;-76
2021/08/25 03:02:50;;;;;;;35.90;23.10;;;;;;;20.31;100.00;101141.59;5011000;28;20220;-75
2021/08/25 03:05:16;;;;;;;36.43;24.30;;;;;;;20.29;100.00;101143.59;5026806;28;20405;-74
2021/08/25 03:07:42;;;;;;;30.63;22.27;;;;;;;20.29;100.00;101149.75;4997957;28;20209;-74
2021/08/25 03:10:09;;;;;;;30.77;22.63;;;;;;;20.30;100.00;101158.59;5031668;28;20654;-74
2021/08/25 03:12:35;;;;;;;33.87;24.70;;;;;;;20.29;100.00;101152.44;5031142;28;20503;-73
2021/08/25 03:15:01;;;;;;;36.37;25.73;;;;;;;20.23;100.00;101150.38;5031701;28;20912;-75
2021/08/25 03:17:26;;;;;;;34.07;24.53;;;;;;;20.21;100.00;101142.53;5031248;28;20443;-75
2021/08/25 03:19:52;;;;;;;38.20;25.00;;;;;;;20.20;100.00;101153.38;5030935;28;20670;-74
2021/08/25 03:22:17;;;;;;;44.60;28.93;;;;;;;20.17;100.00;101156.31;5031464;28;20247;-75
2021/08/25 03:24:43;;;;;;;39.70;27.50;;;;;;;20.14;100.00;101159.31;5031049;28;20634;-76
2021/08/25 03:27:09;;;;;;;46.07;31.33;;;;;;;20.16;100.00;101150.16;5031281;28;20236;-76
2021/08/25 03:29:34;;;;;;;47.73;30.43;;;;;;;20.16;100.00;101154.66;5031065;28;20204;-75
2021/08/25 03:31:59;;;;;;;45.23;29.50;;;;;;;20.18;100.00;101152.69;5031155;28;20176;-75
2021/08/25 03:34:25;;;;;;;41.57;29.40;;;;;;;20.24;100.00;101152.03;5031562;28;20230;-74
2021/08/25 03:36:52;;;;;;;42.80;29.53;;;;;;;20.24;100.00;101147.53;5030051;28;20197;-75
2021/08/25 03:39:17;;;;;;;40.60;30.17;;;;;;;20.29;100.00;101148.91;5031389;28;20174;-75
2021/08/25 03:41:43;;;;;;;38.47;28.90;;;;;;;20.30;100.00;101155.94;5031296;28;20921;-75
2021/08/25 03:44:08;;;;;;;40.83;29.67;;;;;;;20.28;100.00;101157.94;5031332;28;20174;-75
2021/08/25 03:46:35;;;;;;;45.70;29.73;;;;;;;20.35;100.00;101158.97;5031636;28;20186;-74
2021/08/25 03:49:01;;;;;;;43.17;31.17;;;;;;;20.34;100.00;101157.31;5031185;28;20221;-74
2021/08/25 03:51:26;;;;;;;51.90;32.13;;;;;;;20.37;100.00;101159.66;5030876;28;20404;-74
2021/08/25 03:53:52;;;;;;;39.80;31.17;;;;;;;20.39;100.00;101152.31;5030596;28;20182;-75
2021/08/25 03:56:17;;;;;;;50.33;32.77;;;;;;;20.47;100.00;101155.91;5030886;28;20176;-75
2021/08/25 03:58:43;;;;;;;52.63;34.97;;;;;;;20.40;100.00;101154.84;5030475;28;20610;-75
2021/08/25 04:01:08;;;;;;;51.57;34.97;;;;;;;20.45;100.00;101157.91;5030403;28;20166;-74
2021/08/25 04:03:34;;;;;;;50.03;35.07;;;;;;;20.54;100.00;101153.47;5030423;28;20173;-75
2021/08/25 04:05:59;;;;;;;53.23;36.30;;;;;;;20.56;100.00;101154.16;5030907;28;20170;-74
2021/08/25 04:08:25;;;;;;;119.13;44.57;;;;;;;20.49;100.00;101153.94;5030333;28;20752;-75
2021/08/25 04:10:50;;;;;;;64.03;41.37;;;;;;;20.61;100.00;101157.19;5030260;28;20227;-75
2021/08/25 04:13:15;;;;;;;58.20;42.20;;;;;;;20.68;100.00;101158.22;5030476;28;20169;-75
2021/08/25 04:15:41;;;;;;;62.37;42.73;;;;;;;20.72;100.00;101156.94;5030520;28;20169;-73
2021/08/25 04:18:07;;;;;;;69.47;44.13;;;;;;;20.71;100.00;101152.59;5030417;28;20527;-75
2021/08/25 04:20:32;;;;;;;67.13;46.13;;;;;;;20.74;100.00;101151.41;5030380;28;20244;-76
2021/08/25 04:22:58;;;;;;;78.03;47.03;;;;;;;20.75;100.00;101151.25;5030090;28;20408;-74
2021/08/25 04:25:23;;;;;;;70.50;46.47;;;;;;;20.77;100.00;101151.09;5021522;28;20185;-75
2021/08/25 04:27:49;;;;;;;69.33;48.90;;;;;;;20.78;100.00;101145.63;5025294;28;20184;-75
2021/08/25 04:30:14;;;;;;;67.73;48.07;;;;;;;20.82;100.00;101145.28;5029871;28;20189;-75
2021/08/25 04:32:40;;;;;;;84.87;52.90;;;;;;;20.93;100.00;101142.31;5030460;28;20568;-75
2021/08/25 04:35:06;;;;;;;79.20;50.63;;;;;;;21.44;100.00;101137.88;5012530;28;20193;-74
2021/08/25 04:37:31;;;;;;;71.63;45.77;;;;;;;21.96;100.00;101127.75;5030097;28;20630;-76
2021/08/25 04:39:57;;;;;;;69.13;46.67;;;;;;;21.97;100.00;101124.06;5030031;28;20205;-75
2021/08/25 04:42:22;;;;;;;60.27;41.67;;;;;;;21.80;100.00;101117.88;5030360;28;20173;-76
2021/08/25 04:44:48;;;;;;;67.33;42.13;;;;;;;21.86;100.00;101127.91;5029945;28;20178;-76
2021/08/25 04:47:13;;;;;;;63.40;42.30;;;;;;;21.67;100.00;101127.38;5030327;28;20705;-73
2021/08/25 04:49:39;;;;;;;57.10;41.37;;;;;;;21.51;100.00;101142.41;5033972;28;20824;-77
2021/08/25 04:52:04;;;;;;;62.40;42.53;;;;;;;21.43;100.00;101141.53;5013159;28;20178;-77
2021/08/25 04:54:30;;;;;;;65.40;41.93;;;;;;;21.48;100.00;101141.91;5024883;28;20570;-76
2021/08/25 04:56:55;;;;;;;63.07;42.43;;;;;;;21.45;100.00;101144.88;5033619;28;20276;-75
2021/08/25 04:59:21;;;;;;;53.70;38.60;;;;;;;21.42;100.00;101143.38;5033627;28;20163;-75
2021/08/25 05:01:46;;;;;;;60.47;43.90;;;;;;;21.47;100.00;101148.25;5033409;28;20243;-74
2021/08/25 05:04:12;;;;;;;56.73;39.70;;;;;;;21.44;100.00;101154.75;5033365;28;20170;-74
2021/08/25 05:06:39;;;;;;;57.40;36.60;;;;;;;21.48;100.00;101149.91;5033625;28;20713;-75
2021/08/25 05:09:05;;;;;;;52.13;37.00;;;;;;;21.44;100.00;101156.59;5029116;28;20202;-77
2021/08/25 05:11:30;;;;;;;42.83;32.30;;;;;;;21.48;100.00;101152.59;5024034;28;20419;-76
2021/08/25 05:13:56;;;;;;;50.50;34.47;;;;;;;21.42;100.00;101154.06;5033713;28;20624;-75
2021/08/25 05:16:21;;;;;;;50.10;32.87;;;;;;;21.44;100.00;101165.44;5033143;28;20224;-75
2021/08/25 05:18:47;;;;;;;41.67;30.93;;;;;;;21.55;100.00;101170.50;5032850;28;20181;-75
2021/08/25 05:21:12;;;;;;;40.33;31.80;;;;;;;21.72;100.00;101167.84;5032992;28;20225;-75
2021/08/25 05:23:38;;;;;;;44.87;31.90;;;;;;;21.80;100.00;101168.69;5033308;28;20176;-75
2021/08/25 05:26:05;;;;;;;41.40;29.73;;;;;;;21.78;100.00;101168.03;5032513;28;20203;-75
2021/08/25 05:28:32;;;;;;;42.27;30.70;;;;;;;21.84;100.00;101170.06;5033103;28;20452;-75
2021/08/25 05:30:58;;;;;;;44.03;33.53;;;;;;;21.76;100.00;101172.69;5033374;28;20427;-76
2021/08/25 05:33:23;;;;;;;41.77;29.50;;;;;;;21.84;100.00;101178.09;5032361;28;20904;-75
2021/08/25 05:35:48;;;;;;;49.33;31.47;;;;;;;21.91;100.00;101182.75;5032651;28;20170;-77
2021/08/25 05:38:14;;;;;;;45.50;32.17;;;;;;;21.96;100.00;101172.41;5033350;28;20265;-72
2021/08/25 05:40:40;;;;;;;48.50;32.97;;;;;;;22.08;100.00;101169.28;5033586;28;20652;-74
2021/08/25 05:43:05;;;;;;;43.53;31.80;;;;;;;22.18;100.00;101166.41;5033129;28;20205;-76
2021/08/25 05:45:31;;;;;;;50.20;34.43;;;;;;;22.23;100.00;101168.59;5033297;28;20577;-75
2021/08/25 05:47:57;;;;;;;43.40;30.67;;;;;;;22.43;100.00;101164.56;5032921;28;20690;-75
2021/08/25 05:50:23;;;;;;;47.53;30.40;;;;;;;22.59;100.00;101169.03;5018051;28;20181;-75
2021/08/25 05:52:49;;;;;;;42.00;31.60;;;;;;;22.68;100.00;101165.38;5032767;28;20901;-74
2021/08/25 05:55:14;;;;;;;37.83;29.97;;;;;;;22.82;100.00;101170.03;5033539;28;20454;-74
2021/08/25 05:57:45;;;;;;;39.30;28.20;;;;;;;22.91;100.00;101168.19;5032386;28;20174;-76
2021/08/25 06:00:15;;;;;;;41.00;30.10;;;;;;;23.04;100.00;101164.94;5031651;28;20174;-76
2021/08/25 06:02:44;;;;;;;41.37;30.23;;;;;;;23.07;100.00;101170.81;5032580;28;20405;-76
2021/08/25 06:05:12;;;;;;;45.90;31.93;;;;;;;23.20;100.00;101165.72;5032026;28;20462;-75
2021/08/25 06:07:38;;;;;;;36.73;29.10;;;;;;;23.28;100.00;101159.50;5032218;28;20495;-76
2021/08/25 06:10:04;;;;;;;43.40;27.40;;;;;;;23.37;100.00;101154.91;5031924;28;20456;-74
2021/08/25 06:12:30;;;;;;;39.03;28.50;;;;;;;23.51;100.00;101159.53;5031602;28;20421;-75
2021/08/25 06:14:55;;;;;;;36.17;27.47;;;;;;;23.54;100.00;101154.63;5032226;28;20423;-75
2021/08/25 06:17:21;;;;;;;41.00;27.60;;;;;;;23.63;100.00;101157.31;5032567;28;20180;-75
2021/08/25 06:19:46;;;;;;;39.60;23.50;;;;;;;23.83;100.00;101157.69;5031905;28;20565;-75
2021/08/25 06:22:12;;;;;;;31.47;23.20;;;;;;;23.86;100.00;101160.81;5032020;28;20225;-77
2021/08/25 06:24:37;;;;;;;33.30;22.57;;;;;;;24.04;100.00;101155.19;5032283;28;20178;-76
2021/08/25 06:27:04;;;;;;;31.90;22.60;;;;;;;24.15;100.00;101159.25;5032543;28;20622;-75
2021/08/25 06:29:29;;;;;;;46.37;26.97;;;;;;;24.28;100.00;101163.00;5031554;28;20204;-77
2021/08/25 06:31:55;;;;;;;39.33;26.73;;;;;;;24.40;100.00;101157.22;5019098;28;20413;-75
2021/08/25 06:34:20;;;;;;;32.93;24.47;;;;;;;24.47;100.00;101159.00;5031853;28;20166;-73
2021/08/25 06:36:46;;;;;;;30.33;25.07;;;;;;;24.58;100.00;101158.56;5031680;28;20178;-76
2021/08/25 06:39:11;;;;;;;21.20;18.50;;;;;;;24.74;100.00;101154.03;5031850;28;20606;-77
2021/08/25 06:41:37;;;;;;;23.93;19.47;;;;;;;24.83;100.00;101153.75;5029467;28;20177;-74
2021/08/25 06:44:02;;;;;;;21.10;18.30;;;;;;;24.91;100.00;101147.44;5020373;28;20545;-76
2021/08/25 06:46:28;;;;;;;38.93;27.47;;;;;;;24.97;100.00;101149.38;5032133;28;20256;-75
2021/08/25 06:48:53;;;;;;;33.63;24.27;;;;;;;25.23;100.00;101150.75;5031592;28;20205;-74
2021/08/25 06:51:19;;;;;;;19.10;16.03;;;;;;;25.41;100.00;101149.34;5031615;28;20199;-75
2021/08/25 06:53:44;;;;;;;12.10;10.90;;;;;;;25.49;100.00;101151.09;5031263;28;20185;-74
2021/08/25 06:56:10;;;;;;;16.83;12.13;;;;;;;25.60;100.00;101147.06;5031105;28;20601;-75
2021/08/25 06:58:35;;;;;;;15.57;12.63;;;;;;;25.76;100.00;101151.38;5031379;28;20594;-75
2021/08/25 07:01:01;;;;;;;16.40;11.80;;;;;;;25.86;100.00;101160.84;5031225;28;20166;-75
2021/08/25 07:03:26;;;;;;;14.03;10.87;;;;;;;25.94;100.00;101157.19;5030858;28;20189;-76
2021/08/25 07:05:52;;;;;;;16.80;13.27;;;;;;;25.95;100.00;101148.06;5031711;28;20264;-76
2021/08/25 07:08:17;;;;;;;13.63;11.70;;;;;;;26.00;100.00;101154.53;5031447;28;20588;-75
2021/08/25 07:10:42;;;;;;;17.33;11.77;;;;;;;25.79;100.00;101149.16;5031183;28;20553;-75
2021/08/25 07:13:08;;;;;;;20.70;13.13;;;;;;;25.85;100.00;101155.66;5031500;28;20149;-76
2021/08/25 07:15:34;;;;;;;18.50;12.67;;;;;;;25.84;100.00;101148.56;5030934;28;20197;-75
2021/08/25 07:17:59;;;;;;;15.47;12.07;;;;;;;25.94;100.00;101151.78;5031070;28;20158;-73
2021/08/25 07:20:25;;;;;;;15.87;12.50;;;;;;;26.03;100.00;101152.47;5030872;28;20221;-73
2021/08/25 07:22:50;;;;;;;27.43;18.10;;;;;;;26.15;100.00;101154.47;5030931;28;20552;-76
2021/08/25 07:25:16;;;;;;;20.30;16.87;;;;;;;26.20;100.00;101146.63;5030654;28;20177;-75
2021/08/25 07:27:41;;;;;;;18.93;15.67;;;;;;;26.26;100.00;101150.41;5030427;28;20252;-75
2021/08/25 07:30:09;;;;;;;19.30;14.47;;;;;;;26.31;100.00;101149.81;5030256;28;20280;-76
2021/08/25 07:32:35;;;;;;;14.83;12.23;;;;;;;26.37;100.00;101138.22;5030607;28;20600;-74
2021/08/25 07:35:01;;;;;;;14.70;12.07;;;;;;;26.47;100.00;101150.38;5030246;28;20476;-75
2021/08/25 07:37:27;;;;;;;18.03;14.90;;;;;;;26.50;100.00;101144.59;5030388;28;20400;-74
2021/08/25 07:39:52;;;;;;;19.87;16.30;;;;;;;26.58;100.00;101143.59;5030446;28;20470;-77
2021/08/25 07:42:18;;;;;;;16.67;14.27;;;;;;;26.69;100.00;101145.75;5030463;28;20166;-75
2021/08/25 07:44:43;;;;;;;14.00;10.70;;;;;;;26.58;100.00;101142.78;5030402;28;20181;-79
2021/08/25 07:47:09;;;;;;;12.80;10.63;;;;;;;26.57;100.00;101149.19;5029965;28;20641;-75
2021/08/25 07:49:34;;;;;;;16.87;10.53;;;;;;;26.72;100.00;101150.75;5018173;28;20229;-75
2021/08/25 07:52:02;;;;;;;13.80;10.87;;;;;;;26.76;100.00;101145.81;5028301;28;20165;-76
2021/08/25 07:54:27;;;;;;;30.50;22.80;;;;;;;26.86;100.00;101146.25;5012061;28;20181;-74
2021/08/25 07:56:53;;;;;;;15.93;10.40;;;;;;;26.89;100.00;101145.03;5030067;28;20416;-75
2021/08/25 07:59:18;;;;;;;19.63;11.70;;;;;;;26.90;100.00;101144.81;5029898;28;20173;-76
2021/08/25 08:01:44;;;;;;;17.20;11.10;;;;;;;27.03;100.00;101139.50;5029635;28;20227;-76
2021/08/25 08:04:09;;;;;;;11.87;8.70;;;;;;;26.97;100.00;101137.59;5030129;28;20165;-75
2021/08/25 08:06:35;;;;;;;14.37;9.73;;;;;;;27.04;100.00;101132.25;5030385;28;20173;-75
2021/08/25 08:09:01;;;;;;;10.80;9.70;;;;;;;27.16;100.00;101137.94;5030369;28;20184;-76
2021/08/25 08:11:27;;;;;;;12.47;8.70;;;;;;;27.13;100.00;101133.78;5030178;28;20201;-76
2021/08/25 08:13:52;;;;;;;11.07;9.00;;;;;;;27.15;100.00;101136.28;5030420;28;20920;-74
2021/08/25 08:16:20;;;;;;;10.80;8.90;;;;;;;27.27;100.00;101130.06;5029925;28;20560;-74
2021/08/25 08:19:02;;;;;;;12.83;9.53;;;;;;;27.27;100.00;101140.03;5029736;28;20220;-76
2021/08/25 08:21:29;;;;;;;12.20;8.97;;;;;;;27.24;100.00;101140.44;5029385;28;20452;-75
2021/08/25 08:23:56;;;;;;;11.00;9.67;;;;;;;27.21;100.00;101141.69;5017587;28;20862;-77
2021/08/25 08:26:22;;;;;;;12.83;9.37;;;;;;;27.27;100.00;101135.47;5036625;28;20882;-75
2021/08/25 08:28:47;;;;;;;11.90;9.13;;;;;;;27.31;100.00;101131.34;5036245;28;20447;-76
2021/08/25 08:31:13;;;;;;;11.93;10.47;;;;;;;27.44;100.00;101116.22;5036385;28;20474;-76
2021/08/25 08:33:39;;;;;;;19.70;10.00;;;;;;;27.43;100.00;101123.47;5036629;28;20169;-76
2021/08/25 08:36:05;;;;;;;14.67;9.63;;;;;;;27.51;100.00;101119.78;5036399;28;20240;-75
2021/08/25 08:38:31;;;;;;;12.40;9.57;;;;;;;27.56;100.00;101119.97;5035934;28;20173;-75
2021/08/25 08:40:56;;;;;;;23.07;10.17;;;;;;;27.41;100.00;101122.84;5025560;28;20440;-75
2021/08/25 08:43:24;;;;;;;11.03;9.03;;;;;;;27.46;100.00;101122.25;5033198;28;20169;-74
2021/08/25 08:45:51;;;;;;;12.37;10.40;;;;;;;27.53;100.00;101129.31;5018563;28;20487;-76
2021/08/25 08:48:16;;;;;;;16.97;10.07;;;;;;;27.56;100.00;101125.38;5035861;28;20876;-76
2021/08/25 08:50:47;;;;;;;10.50;9.40;;;;;;;27.50;100.00;101124.31;5036281;28;20916;-75
2021/08/25 08:53:17;;;;;;;12.80;9.10;;;;;;;27.65;100.00;101126.84;5022870;28;20174;-73
2021/08/25 08:55:42;;;;;;;16.30;9.67;;;;;;;27.80;100.00;101122.13;5022880;28;20420;-75
2021/08/25 08:58:09;;;;;;;12.73;9.80;;;;;;;27.76;100.00;101123.59;5036290;28;20412;-76
2021/08/25 09:00:35;;;;;;;14.83;10.27;;;;;;;27.74;100.00;101109.47;5022022;28;20412;-76
2021/08/25 09:03:01;;;;;;;10.23;9.20;;;;;;;27.80;100.00;101105.06;5035995;28;20796;-75
2021/08/25 09:05:34;;;;;;;10.67;9.47;;;;;;;27.78;100.00;101104.47;5036165;28;20964;-75
2021/08/25 09:08:05;;;;;;;12.80;9.30;;;;;;;27.83;100.00;101105.50;5035849;28;20185;-76
2021/08/25 09:10:33;;;;;;;11.23;10.03;;;;;;;27.97;100.00;101102.81;5035688;28;20932;-76
2021/08/25 09:13:03;;;;;;;15.83;9.40;;;;;;;28.06;100.00;101102.41;5036036;28;20496;-78
2021/08/25 09:15:32;;;;;;;15.67;10.83;;;;;;;27.96;100.00;101106.53;5036150;28;20798;-76
2021/08/25 09:18:02;;;;;;;14.53;10.50;;;;;;;27.99;100.00;101106.13;5035720;28;20443;-75
2021/08/25 09:20:30;;;;;;;11.40;8.63;;;;;;;27.81;100.00;101104.91;5035926;28;20575;-77
2021/08/25 09:23:11;;;;;;;11.93;9.83;;;;;;;28.08;100.00;101108.41;5035991;28;20496;-77
2021/08/25 09:25:38;;;;;;;10.80;9.63;;;;;;;28.17;100.00;101109.03;5036352;28;20404;-76
2021/08/25 09:28:06;;;;;;;24.63;11.20;;;;;;;28.36;100.00;101108.22;5017199;28;20538;-77
2021/08/25 09:30:57;;;;;;;10.80;9.37;;;;;;;28.28;100.00;101108.41;5035573;28;20455;-75
2021/08/25 09:33:47;;;;;;;10.10;8.60;;;;;;;28.32;100.00;101096.16;5035661;28;20846;-75
2021/08/25 09:36:19;;;;;;;13.33;10.00;;;;;;;28.27;100.00;101098.63;5031501;28;20451;-76
2021/08/25 09:38:53;;;;;;;14.93;9.30;;;;;;;28.25;100.00;101089.88;5019370;28;20854;-74
2021/08/25 09:41:19;;;;;;;15.03;9.67;;;;;;;28.42;100.00;101093.03;5032495;28;20412;-76
2021/08/25 09:43:47;;;;;;;9.87;8.70;;;;;;;28.46;100.00;101089.69;5032673;28;20931;-75
2021/08/25 09:46:21;;;;;;;9.97;8.97;;;;;;;28.50;100.00;101087.41;5032445;28;20174;-74
2021/08/25 09:48:58;;;;;;;14.00;9.97;;;;;;;28.60;100.00;101082.38;5032367;28;20586;-75
2021/08/25 09:51:38;;;;;;;15.73;10.00;;;;;;;28.58;100.00;101079.06;5032126;28;20408;-76
2021/08/25 09:54:11;;;;;;;10.07;9.00;;;;;;;28.59;100.00;101078.00;5032467;28;20411;-75
2021/08/25 09:56:39;;;;;;;13.80;8.53;;;;;;;28.75;100.00;101066.69;5032719;28;20411;-75
2021/08/25 09:59:07;;;;;;;15.73;9.63;;;;;;;28.72;100.00;101064.44;5032597;28;20405;-77
2021/08/25 10:01:34;;;;;;;12.63;8.90;;;;;;;28.71;100.00;101059.22;5032223;28;20405;-75
2021/08/25 10:04:04;;;;;;;12.93;9.70;;;;;;;28.91;100.00;101065.41;5031304;28;20403;-75
2021/08/25 10:06:29;;;;;;;11.57;8.27;;;;;;;28.90;100.00;101063.75;5014218;28;20446;-75
2021/08/25 10:08:55;;;;;;;9.90;8.90;;;;;;;28.95;100.00;101061.25;5031745;28;20872;-75
2021/08/25 10:11:27;;;;;;;8.80;7.90;;;;;;;28.88;100.00;101063.13;5032010;28;20265;-75
2021/08/25 10:13:52;;;;;;;11.37;10.00;;;;;;;29.01;100.00;101063.06;5032075;28;20181;-75
2021/08/25 10:16:38;;;;;;;10.60;8.00;;;;;;;29.12;100.00;101055.34;5032112;28;20405;-75
2021/08/25 10:19:40;;;;;;;10.83;8.00;;;;;;;29.38;100.00;101060.56;5032217;28;20212;-75
2021/08/25 10:22:15;;;;;;;14.63;8.40;;;;;;;29.40;100.00;101055.78;5013726;28;20486;-75
2021/08/25 10:24:58;;;;;;;9.90;7.67;;;;;;;29.50;100.00;101058.03;5013807;28;20587;-76
2021/08/25 10:27:33;;;;;;;9.63;8.20;;;;;;;29.80;100.00;101058.22;5031393;28;20416;-75
2021/08/25 10:30:09;;;;;;;22.70;9.77;;;;;;;29.90;100.00;101052.28;5010093;28;21015;-77
2021/08/25 10:32:58;;;;;;;10.80;8.97;;;;;;;29.84;100.00;101057.53;5023846;28;20412;-75
2021/08/25 10:35:32;;;;;;;9.67;8.23;;;;;;;29.88;100.00;101051.69;5031064;28;20925;-75
2021/08/25 10:38:19;;;;;;;13.40;9.60;;;;;;;29.75;100.00;101053.44;5031175;28;20829;-75
2021/08/25 10:40:46;;;;;;;12.77;10.63;;;;;;;29.90;100.00;101053.13;5031306;28;20471;-76
2021/08/25 10:43:36;;;;;;;11.17;7.87;;;;;;;30.18;100.00;101038.28;5030998;28;20525;-76
2021/08/25 10:46:03;;;;;;;9.80;7.80;;;;;;;30.32;100.00;101042.53;5030951;28;20941;-76
2021/08/25 10:48:40;;;;;;;16.30;7.83;;;;;;;30.37;100.00;101034.53;5030948;28;20511;-77
2021/08/25 10:51:21;;;;;;;11.10;8.77;;;;;;;30.54;100.00;101046.44;5031284;28;20412;-75
2021/08/25 10:53:47;;;;;;;18.03;13.43;;;;;;;30.48;100.00;101041.91;5030742;28;20424;-75
2021/08/25 10:56:18;;;;;;;9.03;7.73;;;;;;;30.50;100.00;101042.50;5031098;28;20405;-76
2021/08/25 10:58:47;;;;;;;13.20;7.97;;;;;;;30.96;100.00;101032.16;5013171;28;20181;-76
2021/08/25 11:01:30;;;;;;;10.03;7.70;;;;;;;31.74;100.00;101038.31;5030735;28;20570;-77
2021/08/25 11:03:58;;;;;;;11.63;8.33;;;;;;;32.32;100.00;101033.13;5030763;28;20787;-76
2021/08/25 11:06:42;;;;;;;13.00;7.90;;;;;;;32.60;100.00;101033.19;5030919;28;20416;-76